sensor_id;sensor_type;location;lat;lon;timestamp;P1;durP1;ratioP1;P2;durP2;ratioP2
14153;SDS011;7157;53.144;7.570;2023-05-28T00:01:19;9.73;;;3.80;;
14153;SDS011;7157;53.144;7.570;2023-05-28T00:11:22;16.23;;;5.00;;
14153;SDS011;7157;53.144;7.570;2023-05-28T00:21:26;14.88;;;4.15;;
14153;SDS011;7157;53.144;7.570;2023-05-28T00:31:29;15.43;;;5.15;;
14153;SDS011;7157;53.144;7.570;2023-05-28T00:41:33;13.35;;;4.47;;
14153;SDS011;7157;53.144;7.570;2023-05-28T00:51:38;21.58;;;5.38;;
14153;SDS011;7157;53.144;7.570;2023-05-28T01:01:43;12.15;;;4.55;;
14153;SDS011;7157;53.144;7.570;2023-05-28T01:11:46;16.05;;;4.68;;
14153;SDS011;7157;53.144;7.570;2023-05-28T01:21:58;13.27;;;4.65;;
14153;SDS011;7157;53.144;7.570;2023-05-28T01:32:06;13.20;;;5.25;;
14153;SDS011;7157;53.144;7.570;2023-05-28T01:42:09;13.38;;;4.85;;
14153;SDS011;7157;53.144;7.570;2023-05-28T01:52:15;13.07;;;5.57;;
14153;SDS011;7157;53.144;7.570;2023-05-28T02:02:18;16.75;;;4.97;;
14153;SDS011;7157;53.144;7.570;2023-05-28T02:12:23;17.55;;;5.40;;
14153;SDS011;7157;53.144;7.570;2023-05-28T02:22:27;19.13;;;5.72;;
14153;SDS011;7157;53.144;7.570;2023-05-28T02:32:31;13.27;;;5.45;;
14153;SDS011;7157;53.144;7.570;2023-05-28T02:42:34;17.17;;;4.53;;
14153;SDS011;7157;53.144;7.570;2023-05-28T02:52:38;12.93;;;4.88;;
14153;SDS011;7157;53.144;7.570;2023-05-28T03:02:41;10.50;;;4.32;;
14153;SDS011;7157;53.144;7.570;2023-05-28T03:12:45;15.18;;;4.70;;
14153;SDS011;7157;53.144;7.570;2023-05-28T03:22:48;12.68;;;4.82;;
14153;SDS011;7157;53.144;7.570;2023-05-28T03:32:52;13.95;;;5.38;;
14153;SDS011;7157;53.144;7.570;2023-05-28T03:42:55;18.67;;;5.70;;
14153;SDS011;7157;53.144;7.570;2023-05-28T03:53:00;15.55;;;6.13;;
14153;SDS011;7157;53.144;7.570;2023-05-28T04:03:03;17.05;;;5.03;;
14153;SDS011;7157;53.144;7.570;2023-05-28T04:13:07;17.42;;;4.63;;
14153;SDS011;7157;53.144;7.570;2023-05-28T04:23:10;13.18;;;4.35;;
14153;SDS011;7157;53.144;7.570;2023-05-28T04:33:16;16.23;;;5.18;;
14153;SDS011;7157;53.144;7.570;2023-05-28T04:43:20;18.23;;;5.18;;
14153;SDS011;7157;53.144;7.570;2023-05-28T04:53:24;18.75;;;5.28;;
14153;SDS011;7157;53.144;7.570;2023-05-28T05:03:27;14.23;;;4.88;;
14153;SDS011;7157;53.144;7.570;2023-05-28T05:13:34;13.32;;;4.93;;
14153;SDS011;7157;53.144;7.570;2023-05-28T05:23:37;11.05;;;4.50;;
14153;SDS011;7157;53.144;7.570;2023-05-28T05:33:41;11.25;;;4.93;;
14153;SDS011;7157;53.144;7.570;2023-05-28T05:43:44;15.95;;;4.85;;
14153;SDS011;7157;53.144;7.570;2023-05-28T05:53:48;14.93;;;4.10;;
14153;SDS011;7157;53.144;7.570;2023-05-28T06:03:51;15.13;;;4.47;;
14153;SDS011;7157;53.144;7.570;2023-05-28T06:13:55;19.35;;;4.22;;
14153;SDS011;7157;53.144;7.570;2023-05-28T06:23:58;10.38;;;3.78;;
14153;SDS011;7157;53.144;7.570;2023-05-28T06:34:02;16.38;;;4.63;;
14153;SDS011;7157;53.144;7.570;2023-05-28T06:44:05;14.23;;;4.30;;
14153;SDS011;7157;53.144;7.570;2023-05-28T06:54:09;11.05;;;4.35;;
14153;SDS011;7157;53.144;7.570;2023-05-28T07:04:11;12.07;;;3.80;;
14153;SDS011;7157;53.144;7.570;2023-05-28T07:14:16;10.05;;;3.50;;
14153;SDS011;7157;53.144;7.570;2023-05-28T07:24:18;13.60;;;3.70;;
14153;SDS011;7157;53.144;7.570;2023-05-28T07:34:22;10.00;;;3.78;;
14153;SDS011;7157;53.144;7.570;2023-05-28T07:44:25;7.78;;;3.70;;
14153;SDS011;7157;53.144;7.570;2023-05-28T07:54:29;8.75;;;3.67;;
14153;SDS011;7157;53.144;7.570;2023-05-28T08:04:32;11.63;;;4.05;;
14153;SDS011;7157;53.144;7.570;2023-05-28T08:14:37;12.23;;;4.10;;
14153;SDS011;7157;53.144;7.570;2023-05-28T08:24:40;9.80;;;4.25;;
14153;SDS011;7157;53.144;7.570;2023-05-28T08:34:44;11.80;;;4.05;;
14153;SDS011;7157;53.144;7.570;2023-05-28T08:44:47;9.75;;;3.95;;
14153;SDS011;7157;53.144;7.570;2023-05-28T08:54:51;14.07;;;4.53;;
14153;SDS011;7157;53.144;7.570;2023-05-28T09:04:54;9.82;;;3.50;;
14153;SDS011;7157;53.144;7.570;2023-05-28T09:15:00;13.40;;;3.78;;
14153;SDS011;7157;53.144;7.570;2023-05-28T09:25:05;14.35;;;4.03;;
14153;SDS011;7157;53.144;7.570;2023-05-28T09:35:10;9.45;;;3.65;;
14153;SDS011;7157;53.144;7.570;2023-05-28T09:45:20;9.23;;;3.38;;
14153;SDS011;7157;53.144;7.570;2023-05-28T09:55:26;8.82;;;3.45;;
14153;SDS011;7157;53.144;7.570;2023-05-28T10:05:32;7.75;;;3.63;;
14153;SDS011;7157;53.144;7.570;2023-05-28T10:15:37;8.30;;;3.90;;
14153;SDS011;7157;53.144;7.570;2023-05-28T10:25:40;6.88;;;2.92;;
14153;SDS011;7157;53.144;7.570;2023-05-28T10:35:51;7.13;;;2.90;;
14153;SDS011;7157;53.144;7.570;2023-05-28T10:45:56;5.47;;;2.90;;
14153;SDS011;7157;53.144;7.570;2023-05-28T10:56:01;6.25;;;2.63;;
14153;SDS011;7157;53.144;7.570;2023-05-28T11:06:05;4.50;;;2.42;;
14153;SDS011;7157;53.144;7.570;2023-05-28T11:16:10;4.55;;;2.35;;
14153;SDS011;7157;53.144;7.570;2023-05-28T11:26:20;6.50;;;2.38;;
14153;SDS011;7157;53.144;7.570;2023-05-28T11:36:25;5.25;;;3.08;;
14153;SDS011;7157;53.144;7.570;2023-05-28T11:46:28;5.40;;;3.17;;
14153;SDS011;7157;53.144;7.570;2023-05-28T11:56:33;5.32;;;2.72;;
14153;SDS011;7157;53.144;7.570;2023-05-28T12:16:52;5.93;;;2.78;;
14153;SDS011;7157;53.144;7.570;2023-05-28T12:26:55;7.73;;;2.73;;
14153;SDS011;7157;53.144;7.570;2023-05-28T12:36:59;12.23;;;2.80;;
14153;SDS011;7157;53.144;7.570;2023-05-28T12:47:02;6.80;;;2.20;;
14153;SDS011;7157;53.144;7.570;2023-05-28T12:57:06;6.25;;;2.55;;
14153;SDS011;7157;53.144;7.570;2023-05-28T13:07:09;8.60;;;2.10;;
14153;SDS011;7157;53.144;7.570;2023-05-28T13:17:14;8.67;;;2.17;;
14153;SDS011;7157;53.144;7.570;2023-05-28T13:27:17;8.47;;;2.10;;
14153;SDS011;7157;53.144;7.570;2023-05-28T13:37:21;9.40;;;2.10;;
14153;SDS011;7157;53.144;7.570;2023-05-28T13:47:24;7.40;;;2.00;;
14153;SDS011;7157;53.144;7.570;2023-05-28T13:57:28;9.15;;;1.90;;
14153;SDS011;7157;53.144;7.570;2023-05-28T14:07:31;7.00;;;2.20;;
14153;SDS011;7157;53.144;7.570;2023-05-28T14:17:35;6.93;;;2.05;;
14153;SDS011;7157;53.144;7.570;2023-05-28T14:27:38;6.45;;;1.95;;
14153;SDS011;7157;53.144;7.570;2023-05-28T14:37:42;6.90;;;2.15;;
14153;SDS011;7157;53.144;7.570;2023-05-28T14:47:46;8.23;;;2.05;;
14153;SDS011;7157;53.144;7.570;2023-05-28T14:57:51;9.00;;;2.25;;
14153;SDS011;7157;53.144;7.570;2023-05-28T15:07:53;5.40;;;1.88;;
14153;SDS011;7157;53.144;7.570;2023-05-28T15:17:58;6.38;;;2.08;;
14153;SDS011;7157;53.144;7.570;2023-05-28T15:28:00;5.70;;;1.88;;
14153;SDS011;7157;53.144;7.570;2023-05-28T15:38:05;8.18;;;2.00;;
14153;SDS011;7157;53.144;7.570;2023-05-28T15:48:08;5.93;;;2.40;;
14153;SDS011;7157;53.144;7.570;2023-05-28T15:58:13;5.85;;;1.90;;
14153;SDS011;7157;53.144;7.570;2023-05-28T16:08:16;6.53;;;2.05;;
14153;SDS011;7157;53.144;7.570;2023-05-28T16:18:20;8.68;;;2.40;;
14153;SDS011;7157;53.144;7.570;2023-05-28T16:28:24;8.50;;;2.40;;
14153;SDS011;7157;53.144;7.570;2023-05-28T16:38:29;9.57;;;2.97;;
14153;SDS011;7157;53.144;7.570;2023-05-28T16:48:32;8.98;;;2.70;;
14153;SDS011;7157;53.144;7.570;2023-05-28T16:58:39;7.50;;;2.50;;
14153;SDS011;7157;53.144;7.570;2023-05-28T17:08:42;7.32;;;2.78;;
14153;SDS011;7157;53.144;7.570;2023-05-28T17:18:47;7.40;;;2.70;;
14153;SDS011;7157;53.144;7.570;2023-05-28T17:28:50;8.30;;;2.72;;
14153;SDS011;7157;53.144;7.570;2023-05-28T17:38:54;10.00;;;2.63;;
14153;SDS011;7157;53.144;7.570;2023-05-28T17:48:58;6.07;;;2.55;;
14153;SDS011;7157;53.144;7.570;2023-05-28T17:59:02;8.27;;;2.50;;
14153;SDS011;7157;53.144;7.570;2023-05-28T18:09:05;7.15;;;2.78;;
14153;SDS011;7157;53.144;7.570;2023-05-28T18:19:09;6.47;;;2.40;;
14153;SDS011;7157;53.144;7.570;2023-05-28T18:29:13;7.60;;;2.95;;
14153;SDS011;7157;53.144;7.570;2023-05-28T18:39:17;7.57;;;2.33;;
14153;SDS011;7157;53.144;7.570;2023-05-28T18:49:20;9.90;;;2.40;;
14153;SDS011;7157;53.144;7.570;2023-05-28T18:59:24;9.00;;;2.00;;
14153;SDS011;7157;53.144;7.570;2023-05-28T19:09:27;8.75;;;1.80;;
14153;SDS011;7157;53.144;7.570;2023-05-28T19:19:31;14.45;;;2.35;;
14153;SDS011;7157;53.144;7.570;2023-05-28T19:29:34;12.43;;;2.28;;
14153;SDS011;7157;53.144;7.570;2023-05-28T19:39:38;15.25;;;2.35;;
14153;SDS011;7157;53.144;7.570;2023-05-28T19:49:41;14.45;;;2.42;;
14153;SDS011;7157;53.144;7.570;2023-05-28T19:59:45;18.92;;;2.63;;
14153;SDS011;7157;53.144;7.570;2023-05-28T20:09:47;12.68;;;1.92;;
14153;SDS011;7157;53.144;7.570;2023-05-28T20:19:51;11.50;;;2.13;;
14153;SDS011;7157;53.144;7.570;2023-05-28T20:29:54;20.65;;;2.70;;
14153;SDS011;7157;53.144;7.570;2023-05-28T20:39:58;19.55;;;1.92;;
14153;SDS011;7157;53.144;7.570;2023-05-28T20:50:01;11.73;;;1.75;;
14153;SDS011;7157;53.144;7.570;2023-05-28T21:00:06;16.85;;;3.10;;
14153;SDS011;7157;53.144;7.570;2023-05-28T21:10:11;16.42;;;2.35;;
14153;SDS011;7157;53.144;7.570;2023-05-28T21:20:15;15.63;;;2.03;;
14153;SDS011;7157;53.144;7.570;2023-05-28T21:30:18;10.00;;;1.75;;
14153;SDS011;7157;53.144;7.570;2023-05-28T21:40:22;15.52;;;2.50;;
14153;SDS011;7157;53.144;7.570;2023-05-28T21:50:25;12.27;;;2.10;;
14153;SDS011;7157;53.144;7.570;2023-05-28T22:00:29;12.65;;;1.52;;
14153;SDS011;7157;53.144;7.570;2023-05-28T22:10:32;17.35;;;2.30;;
14153;SDS011;7157;53.144;7.570;2023-05-28T22:20:36;14.13;;;2.03;;
14153;SDS011;7157;53.144;7.570;2023-05-28T22:30:44;12.88;;;2.10;;
14153;SDS011;7157;53.144;7.570;2023-05-28T22:40:48;15.65;;;2.30;;
14153;SDS011;7157;53.144;7.570;2023-05-28T22:50:51;18.58;;;2.30;;
14153;SDS011;7157;53.144;7.570;2023-05-28T23:00:55;13.68;;;2.95;;
14153;SDS011;7157;53.144;7.570;2023-05-28T23:10:58;13.05;;;1.70;;
14153;SDS011;7157;53.144;7.570;2023-05-28T23:21:02;15.50;;;2.22;;
14153;SDS011;7157;53.144;7.570;2023-05-28T23:31:09;17.55;;;1.88;;
14153;SDS011;7157;53.144;7.570;2023-05-28T23:41:13;18.30;;;2.67;;
14153;SDS011;7157;53.144;7.570;2023-05-28T23:51:17;10.93;;;2.55;;
